createdAt,value
2022-08-26T00:02:17.432Z,21.70
2022-08-26T00:04:50.153Z,21.80
2022-08-26T00:07:18.929Z,21.80
2022-08-26T00:09:47.315Z,21.80
2022-08-26T00:12:15.762Z,21.70
2022-08-26T00:14:43.891Z,21.80
2022-08-26T00:17:12.036Z,21.90
2022-08-26T00:19:40.500Z,21.80
2022-08-26T00:22:09.902Z,21.80
2022-08-26T00:24:39.759Z,21.70
2022-08-26T00:27:16.017Z,21.60
2022-08-26T00:29:45.308Z,21.60
2022-08-26T00:32:13.463Z,21.60
2022-08-26T00:34:42.353Z,21.50
2022-08-26T00:37:14.539Z,21.60
2022-08-26T00:39:44.186Z,21.70
2022-08-26T00:42:13.985Z,21.70
2022-08-26T00:44:42.016Z,21.70
2022-08-26T00:47:18.835Z,21.70
2022-08-26T00:49:48.718Z,21.70
2022-08-26T00:52:21.412Z,21.70
2022-08-26T00:54:58.210Z,21.70
2022-08-26T00:57:26.400Z,21.70
2022-08-26T00:59:57.548Z,21.70
2022-08-26T01:02:25.877Z,21.70
2022-08-26T01:05:00.966Z,21.70
2022-08-26T01:07:34.826Z,21.70
2022-08-26T01:10:06.215Z,21.90
2022-08-26T01:12:40.288Z,21.70
2022-08-26T01:15:10.012Z,21.60
2022-08-26T01:17:39.614Z,21.70
2022-08-26T01:20:13.272Z,21.70
2022-08-26T01:22:53.267Z,21.70
2022-08-26T01:25:24.134Z,21.60
2022-08-26T01:27:53.310Z,21.60
2022-08-26T01:30:22.182Z,21.60
2022-08-26T01:32:51.586Z,21.60
2022-08-26T01:35:21.395Z,21.70
2022-08-26T01:37:55.650Z,21.60
2022-08-26T01:40:28.753Z,21.60
2022-08-26T01:42:57.249Z,21.60
2022-08-26T01:45:28.862Z,21.60
2022-08-26T01:48:00.191Z,21.60
2022-08-26T01:50:32.768Z,21.50
2022-08-26T01:53:07.703Z,21.60
2022-08-26T01:55:38.299Z,21.40
2022-08-26T01:58:14.489Z,21.40
2022-08-26T02:00:44.194Z,21.50
2022-08-26T02:03:18.852Z,21.50
2022-08-26T02:05:51.486Z,21.40
2022-08-26T02:08:25.372Z,21.40
2022-08-26T02:10:54.895Z,21.40
2022-08-26T02:13:24.398Z,21.40
2022-08-26T02:15:54.321Z,21.30
2022-08-26T02:18:22.977Z,21.30
2022-08-26T02:20:54.855Z,21.30
2022-08-26T02:23:24.691Z,21.40
2022-08-26T02:26:00.381Z,21.30
2022-08-26T02:28:32.209Z,21.40
2022-08-26T02:31:00.309Z,21.30
2022-08-26T02:33:30.940Z,21.40
2022-08-26T02:35:59.175Z,21.30
2022-08-26T02:38:29.483Z,21.10
2022-08-26T02:40:57.819Z,21.10
2022-08-26T02:43:31.736Z,21.00
2022-08-26T02:46:02.376Z,21.00
2022-08-26T02:48:31.988Z,21.10
2022-08-26T02:51:01.716Z,21.20
2022-08-26T02:53:35.436Z,21.20
2022-08-26T02:56:04.234Z,21.20
2022-08-26T02:58:32.573Z,21.20
2022-08-26T03:01:01.584Z,21.20
2022-08-26T03:03:33.494Z,21.00
2022-08-26T03:06:02.017Z,21.00
2022-08-26T03:08:31.300Z,21.00
2022-08-26T03:10:59.578Z,21.10
2022-08-26T03:13:30.001Z,21.10
2022-08-26T03:15:58.090Z,21.00
2022-08-26T03:18:26.900Z,21.00
2022-08-26T03:20:54.808Z,21.00
2022-08-26T03:23:23.460Z,21.00
2022-08-26T03:25:54.316Z,21.00
2022-08-26T03:28:22.469Z,21.00
2022-08-26T03:30:50.000Z,20.90
2022-08-26T03:33:19.468Z,20.90
2022-08-26T03:35:50.559Z,20.90
2022-08-26T03:38:20.092Z,20.90
2022-08-26T03:40:48.707Z,21.00
2022-08-26T03:43:20.071Z,21.00
2022-08-26T03:45:48.423Z,20.90
2022-08-26T03:48:19.805Z,21.00
2022-08-26T03:50:48.825Z,20.90
2022-08-26T03:53:20.563Z,20.90
2022-08-26T03:55:51.898Z,20.90
2022-08-26T03:58:22.081Z,20.90
2022-08-26T04:00:55.510Z,21.00
2022-08-26T04:03:37.975Z,21.00
2022-08-26T04:06:06.586Z,21.00
2022-08-26T04:08:37.643Z,21.00
2022-08-26T04:11:07.899Z,20.90
2022-08-26T04:13:42.430Z,20.90
2022-08-26T04:16:10.615Z,20.80
2022-08-26T04:18:40.566Z,20.80
2022-08-26T04:21:15.499Z,20.80
2022-08-26T04:23:47.648Z,20.80
2022-08-26T04:26:16.596Z,20.90
2022-08-26T04:28:46.064Z,20.90
2022-08-26T04:31:15.988Z,20.80
2022-08-26T04:33:44.960Z,20.90
2022-08-26T04:36:15.532Z,20.90
2022-08-26T04:38:45.781Z,21.00
2022-08-26T04:41:15.318Z,20.90
2022-08-26T04:43:47.355Z,20.90
2022-08-26T04:46:22.004Z,20.90
2022-08-26T04:48:51.889Z,20.90
2022-08-26T04:51:20.983Z,21.00
2022-08-26T04:53:48.979Z,21.00
2022-08-26T04:56:18.743Z,21.00
2022-08-26T04:58:49.927Z,21.00
2022-08-26T05:01:18.792Z,21.00
2022-08-26T05:03:47.032Z,20.90
2022-08-26T05:06:15.695Z,20.90
2022-08-26T05:08:47.458Z,20.90
2022-08-26T05:11:15.739Z,21.00
2022-08-26T05:13:43.782Z,21.10
2022-08-26T05:16:15.437Z,21.00
2022-08-26T05:18:45.108Z,20.90
2022-08-26T05:21:20.069Z,21.00
2022-08-26T05:23:49.509Z,21.00
2022-08-26T05:26:17.442Z,21.00
2022-08-26T05:28:51.677Z,21.00
2022-08-26T05:31:31.619Z,21.10
2022-08-26T05:34:03.596Z,21.00
2022-08-26T05:36:45.837Z,21.00
2022-08-26T05:39:14.655Z,21.00
2022-08-26T05:41:44.866Z,21.10
2022-08-26T05:44:16.636Z,21.20
2022-08-26T05:46:47.069Z,21.20
2022-08-26T05:49:18.520Z,21.40
2022-08-26T05:51:48.107Z,21.30
2022-08-26T05:54:21.728Z,21.30
2022-08-26T05:56:51.743Z,21.10
2022-08-26T05:59:24.115Z,21.20
2022-08-26T06:01:55.889Z,21.10
2022-08-26T06:04:27.229Z,21.00
2022-08-26T06:06:58.584Z,21.00
2022-08-26T06:09:27.779Z,21.20
2022-08-26T06:11:59.162Z,21.30
2022-08-26T06:14:27.587Z,21.30
2022-08-26T06:16:57.493Z,21.30
2022-08-26T06:19:25.899Z,21.20
2022-08-26T06:22:23.409Z,21.30
2022-08-26T06:25:09.898Z,21.20
2022-08-26T06:27:38.698Z,21.10
2022-08-26T06:30:09.848Z,21.00
2022-08-26T06:32:40.962Z,21.00
2022-08-26T06:35:12.273Z,20.80
2022-08-26T06:37:42.991Z,20.80
2022-08-26T06:40:15.796Z,20.80
2022-08-26T06:42:45.647Z,20.80
2022-08-26T06:45:13.918Z,20.90
2022-08-26T06:47:43.270Z,20.80
2022-08-26T06:50:11.470Z,20.90
2022-08-26T06:52:42.321Z,21.00
2022-08-26T06:55:11.330Z,21.00
2022-08-26T06:57:41.228Z,21.10
2022-08-26T07:00:10.892Z,21.10
2022-08-26T07:02:40.281Z,21.10
2022-08-26T07:05:15.932Z,21.10
2022-08-26T07:07:43.981Z,21.20
2022-08-26T07:10:12.047Z,21.30
2022-08-26T07:12:40.186Z,21.20
2022-08-26T07:15:10.522Z,21.20
2022-08-26T07:17:38.610Z,21.20
2022-08-26T07:20:16.557Z,21.30
2022-08-26T07:22:46.403Z,21.30
2022-08-26T07:25:14.311Z,21.30
2022-08-26T07:27:43.102Z,21.30
2022-08-26T07:30:14.727Z,21.30
2022-08-26T07:32:43.424Z,21.40
2022-08-26T07:35:11.648Z,21.30
2022-08-26T07:37:40.639Z,21.20
2022-08-26T07:40:11.816Z,21.10
2022-08-26T07:42:40.440Z,21.10
2022-08-26T07:45:08.916Z,21.20
2022-08-26T07:47:37.129Z,21.30
2022-08-26T07:50:08.829Z,21.20
2022-08-26T07:52:38.720Z,21.10
2022-08-26T07:55:14.899Z,21.20
2022-08-26T07:57:43.633Z,21.10
2022-08-26T08:00:19.076Z,21.20
2022-08-26T08:02:48.868Z,21.20
2022-08-26T08:05:21.552Z,21.40
2022-08-26T08:07:49.946Z,21.60
2022-08-26T08:10:26.718Z,21.40
2022-08-26T08:13:39.502Z,21.50
2022-08-26T08:16:12.637Z,21.40
2022-08-26T08:18:41.321Z,21.30
2022-08-26T08:21:21.777Z,21.30
2022-08-26T08:23:52.433Z,21.30
2022-08-26T08:26:22.621Z,21.30
2022-08-26T08:28:51.412Z,21.20
2022-08-26T08:31:45.158Z,21.30
2022-08-26T08:34:09.953Z,21.40
2022-08-26T08:36:38.150Z,21.40
2022-08-26T08:39:07.157Z,21.40
2022-08-26T08:41:52.601Z,21.50
2022-08-26T08:46:55.761Z,21.50
2022-08-26T08:49:29.227Z,21.60
2022-08-26T08:52:15.761Z,21.60
2022-08-26T08:54:45.907Z,21.60
2022-08-26T08:58:04.983Z,21.60
2022-08-26T09:00:51.206Z,21.50
2022-08-26T09:03:33.864Z,21.50
2022-08-26T09:06:04.408Z,21.60
2022-08-26T09:08:37.322Z,21.60
2022-08-26T09:11:05.567Z,21.60
2022-08-26T09:13:46.157Z,21.70
2022-08-26T09:16:26.582Z,21.80
2022-08-26T09:19:07.390Z,21.80
2022-08-26T09:21:36.509Z,21.70
2022-08-26T09:24:05.764Z,21.70
2022-08-26T09:26:45.146Z,21.70
2022-08-26T09:29:25.765Z,21.70
2022-08-26T09:31:54.944Z,21.70
2022-08-26T09:34:25.823Z,21.60
2022-08-26T09:36:55.898Z,21.70
2022-08-26T09:39:31.133Z,21.70
2022-08-26T09:42:10.462Z,21.80
2022-08-26T09:44:57.298Z,21.90
2022-08-26T09:47:34.796Z,22.00
2022-08-26T09:50:09.724Z,22.00
2022-08-26T09:52:52.460Z,22.00
2022-08-26T09:55:23.992Z,22.10
2022-08-26T09:58:19.166Z,22.30
2022-08-26T10:01:02.551Z,22.30
2022-08-26T10:03:33.984Z,22.20
2022-08-26T10:06:04.486Z,22.30
2022-08-26T10:08:34.922Z,22.30
2022-08-26T10:11:06.699Z,22.30
2022-08-26T10:13:38.922Z,22.30
2022-08-26T10:16:19.144Z,22.30
2022-08-26T10:18:51.666Z,22.30
2022-08-26T10:21:25.586Z,22.50
2022-08-26T10:23:58.153Z,22.40
2022-08-26T10:26:34.362Z,22.30
2022-08-26T10:29:09.894Z,22.20
2022-08-26T10:31:43.554Z,22.20
2022-08-26T10:34:14.003Z,22.10
2022-08-26T10:37:13.450Z,22.10
2022-08-26T10:39:56.887Z,22.10
2022-08-26T10:42:31.233Z,22.00
2022-08-26T10:45:06.286Z,22.00
2022-08-26T10:47:44.420Z,22.10
2022-08-26T10:50:12.854Z,22.20
2022-08-26T10:52:53.946Z,22.30
2022-08-26T10:55:44.963Z,22.40
2022-08-26T10:58:39.778Z,22.50
2022-08-26T11:01:32.369Z,22.30
2022-08-26T11:04:10.732Z,22.30
2022-08-26T11:06:39.355Z,22.50
2022-08-26T11:09:10.470Z,22.50
2022-08-26T11:11:51.228Z,22.60
2022-08-26T11:14:53.039Z,22.60
2022-08-26T11:18:00.007Z,22.40
2022-08-26T11:20:42.396Z,22.50
2022-08-26T11:23:38.880Z,22.60
2022-08-26T11:26:18.890Z,22.50
2022-08-26T11:29:03.961Z,22.40
2022-08-26T11:31:55.670Z,22.30
2022-08-26T11:34:54.222Z,22.40
2022-08-26T11:37:27.605Z,22.30
2022-08-26T11:39:57.300Z,22.30
2022-08-26T11:42:34.456Z,22.30
2022-08-26T11:45:06.281Z,22.30
2022-08-26T11:47:34.456Z,22.40
2022-08-26T11:50:15.652Z,22.50
2022-08-26T11:52:54.299Z,22.70
2022-08-26T11:55:23.386Z,22.80
2022-08-26T11:57:54.558Z,23.00
2022-08-26T12:00:25.068Z,23.00
2022-08-26T12:02:55.670Z,23.00
2022-08-26T12:05:29.540Z,23.10
2022-08-26T12:08:05.034Z,23.20
2022-08-26T12:10:35.812Z,23.20
2022-08-26T12:13:06.318Z,23.20
2022-08-26T12:15:53.439Z,23.20
2022-08-26T12:18:32.739Z,23.00
2022-08-26T12:21:16.667Z,23.10
2022-08-26T12:24:00.206Z,23.10
2022-08-26T12:26:32.913Z,23.10
2022-08-26T12:29:20.363Z,23.20
2022-08-26T12:32:14.639Z,23.30
2022-08-26T12:34:45.332Z,23.30
2022-08-26T12:37:21.153Z,23.30
2022-08-26T12:39:51.057Z,23.40
2022-08-26T12:42:42.232Z,23.30
2022-08-26T12:45:11.137Z,23.10
2022-08-26T12:47:43.575Z,23.00
2022-08-26T12:50:18.813Z,22.90
2022-08-26T12:52:57.140Z,22.70
2022-08-26T12:55:35.853Z,22.70
2022-08-26T12:58:26.519Z,22.80
2022-08-26T13:00:56.655Z,22.80
2022-08-26T13:03:50.052Z,22.70
2022-08-26T13:06:27.967Z,22.70
2022-08-26T13:08:58.601Z,22.80
2022-08-26T13:11:31.716Z,22.70
2022-08-26T13:14:02.038Z,22.80
2022-08-26T13:16:31.305Z,22.90
2022-08-26T13:19:01.369Z,22.80
2022-08-26T13:21:32.055Z,22.80
2022-08-26T13:24:09.269Z,22.60
2022-08-26T13:27:47.469Z,22.50
2022-08-26T13:30:15.911Z,22.60
2022-08-26T13:32:43.849Z,22.70
2022-08-26T13:35:12.496Z,22.90
2022-08-26T13:37:40.405Z,23.10
2022-08-26T13:40:11.220Z,23.00
2022-08-26T13:42:43.051Z,23.20
2022-08-26T13:45:19.769Z,23.30
2022-08-26T13:47:48.088Z,23.30
2022-08-26T13:50:16.126Z,23.40
2022-08-26T13:52:44.223Z,23.40
2022-08-26T13:55:13.011Z,23.10
2022-08-26T13:57:40.928Z,23.00
2022-08-26T14:00:11.268Z,22.80
2022-08-26T14:02:40.480Z,22.60
2022-08-26T14:05:10.426Z,22.80
2022-08-26T14:07:38.639Z,22.80
2022-08-26T14:10:07.942Z,22.80
2022-08-26T14:12:35.873Z,22.90
2022-08-26T14:15:04.081Z,22.90
2022-08-26T14:17:32.589Z,23.10
2022-08-26T14:20:01.830Z,23.10
2022-08-26T14:22:30.002Z,23.20
2022-08-26T14:24:57.849Z,23.30
2022-08-26T14:27:26.185Z,23.30
2022-08-26T14:29:54.522Z,23.30
2022-08-26T14:32:25.642Z,23.30
2022-08-26T14:34:54.651Z,23.40
2022-08-26T14:37:24.088Z,23.20
2022-08-26T14:39:52.435Z,23.30
2022-08-26T14:42:23.758Z,23.20
2022-08-26T14:44:57.127Z,23.20
2022-08-26T14:47:25.005Z,23.30
2022-08-26T14:49:53.131Z,23.20
2022-08-26T14:52:21.454Z,23.20
2022-08-26T14:54:55.022Z,23.20
2022-08-26T14:57:23.598Z,23.20
2022-08-26T14:59:51.548Z,23.20
2022-08-26T15:02:32.412Z,23.20
2022-08-26T15:05:02.218Z,23.20
2022-08-26T15:07:30.108Z,23.00
2022-08-26T15:09:59.285Z,23.00
2022-08-26T15:12:27.760Z,22.90
2022-08-26T15:14:55.593Z,23.10
2022-08-26T15:17:23.596Z,22.90
2022-08-26T15:19:51.797Z,22.90
2022-08-26T15:22:19.819Z,23.00
2022-08-26T15:24:47.720Z,23.00
2022-08-26T15:27:21.612Z,23.20
2022-08-26T15:29:49.900Z,23.20
2022-08-26T15:32:17.807Z,22.90
2022-08-26T15:34:46.012Z,22.80
2022-08-26T15:37:14.098Z,22.80
2022-08-26T15:39:41.946Z,22.80
2022-08-26T15:42:11.143Z,22.90
2022-08-26T15:44:44.690Z,22.90
2022-08-26T15:47:13.816Z,22.60
2022-08-26T15:49:41.764Z,22.40
2022-08-26T15:52:09.660Z,22.40
2022-08-26T15:54:38.219Z,22.20
2022-08-26T15:57:09.462Z,22.20
2022-08-26T15:59:40.866Z,22.20
2022-08-26T16:02:09.117Z,22.30
2022-08-26T16:04:37.142Z,22.50
2022-08-26T16:07:06.205Z,22.60
2022-08-26T16:09:34.173Z,22.50
2022-08-26T16:12:02.156Z,22.50
2022-08-26T16:14:31.774Z,22.50
2022-08-26T16:17:01.120Z,22.60
2022-08-26T16:19:40.633Z,22.60
2022-08-26T16:22:09.234Z,22.50
2022-08-26T16:24:43.526Z,22.40
2022-08-26T16:27:11.461Z,22.60
2022-08-26T16:29:40.372Z,22.70
2022-08-26T16:32:09.680Z,22.60
2022-08-26T16:34:37.571Z,22.70
2022-08-26T16:37:15.606Z,23.80
2022-08-26T16:39:45.065Z,22.80
2022-08-26T16:42:13.183Z,22.80
2022-08-26T16:44:45.456Z,22.90
2022-08-26T16:47:15.854Z,22.90
2022-08-26T16:49:44.495Z,22.80
2022-08-26T16:52:14.103Z,22.80
2022-08-26T16:54:42.463Z,22.80
2022-08-26T16:57:12.136Z,22.60
2022-08-26T16:59:41.704Z,22.60
2022-08-26T17:02:11.763Z,22.40
2022-08-26T17:04:41.641Z,22.30
2022-08-26T17:07:15.370Z,22.10
2022-08-26T17:09:43.206Z,22.10
2022-08-26T17:12:11.386Z,22.80
2022-08-26T17:14:39.558Z,22.30
2022-08-26T17:17:08.204Z,22.20
2022-08-26T17:19:40.655Z,22.80
2022-08-26T17:22:10.864Z,22.00
2022-08-26T17:24:39.348Z,21.90
2022-08-26T17:27:07.271Z,22.10
2022-08-26T17:29:35.244Z,22.10
2022-08-26T17:32:03.217Z,22.20
2022-08-26T17:34:31.010Z,22.00
2022-08-26T17:36:59.017Z,21.90
2022-08-26T17:39:28.173Z,21.90
2022-08-26T17:41:55.944Z,21.80
2022-08-26T17:44:24.581Z,21.80
2022-08-26T17:46:52.835Z,21.80
2022-08-26T17:49:20.774Z,21.70
2022-08-26T17:51:51.283Z,21.60
2022-08-26T17:54:19.330Z,21.50
2022-08-26T17:56:48.635Z,21.60
2022-08-26T17:59:16.904Z,21.50
2022-08-26T18:01:46.309Z,21.40
2022-08-26T18:04:14.957Z,21.40
2022-08-26T18:06:44.453Z,21.30
2022-08-26T18:09:12.395Z,21.30
2022-08-26T18:11:43.740Z,21.30
2022-08-26T18:14:13.050Z,21.10
2022-08-26T18:16:41.630Z,21.00
2022-08-26T18:19:09.787Z,21.00
2022-08-26T18:21:37.698Z,20.80
2022-08-26T18:24:06.100Z,20.80
2022-08-26T18:26:36.466Z,20.70
2022-08-26T18:29:04.718Z,20.70
2022-08-26T18:31:35.110Z,20.60
2022-08-26T18:34:03.722Z,20.70
2022-08-26T18:36:34.224Z,20.70
2022-08-26T18:39:02.955Z,20.70
2022-08-26T18:41:33.154Z,20.60
2022-08-26T18:44:01.291Z,20.50
2022-08-26T18:46:29.532Z,20.40
2022-08-26T18:48:59.001Z,20.50
2022-08-26T18:51:33.615Z,20.30
2022-08-26T18:54:03.584Z,20.30
2022-08-26T18:56:32.189Z,20.20
2022-08-26T18:59:00.115Z,20.10
2022-08-26T19:01:30.404Z,20.10
2022-08-26T19:04:01.364Z,20.10
2022-08-26T19:06:31.546Z,20.10
2022-08-26T19:08:59.851Z,20.00
2022-08-26T19:11:31.475Z,19.90
2022-08-26T19:14:00.896Z,19.90
2022-08-26T19:16:29.785Z,19.80
2022-08-26T19:19:00.903Z,19.70
2022-08-26T19:21:29.768Z,19.60
2022-08-26T19:23:58.931Z,19.70
2022-08-26T19:26:27.729Z,19.70
2022-08-26T19:28:55.978Z,19.80
2022-08-26T19:31:24.049Z,19.80
2022-08-26T19:33:52.073Z,19.70
2022-08-26T19:36:24.818Z,19.70
2022-08-26T19:38:53.639Z,19.60
2022-08-26T19:41:36.674Z,19.50
2022-08-26T19:44:07.818Z,19.40
2022-08-26T19:49:10.977Z,19.40
2022-08-26T19:51:40.402Z,19.40
2022-08-26T19:54:08.215Z,19.30
2022-08-26T19:56:36.441Z,19.30
2022-08-26T19:59:04.472Z,19.20
2022-08-26T20:01:32.327Z,19.20
2022-08-26T20:04:00.288Z,19.20
2022-08-26T20:06:28.236Z,19.30
2022-08-26T20:08:57.541Z,19.30
2022-08-26T20:11:26.080Z,19.30
2022-08-26T20:13:54.111Z,19.30
2022-08-26T20:16:21.988Z,19.30
2022-08-26T20:19:07.473Z,19.20
2022-08-26T20:21:39.023Z,19.20
2022-08-26T20:24:11.644Z,19.20
2022-08-26T20:26:41.940Z,19.10
2022-08-26T20:29:11.277Z,19.00
2022-08-26T20:31:39.417Z,19.10
2022-08-26T20:34:07.803Z,19.00
2022-08-26T20:36:35.952Z,19.10
2022-08-26T20:39:05.142Z,19.00
2022-08-26T20:41:35.509Z,19.00
2022-08-26T20:44:03.630Z,19.00
2022-08-26T20:46:31.619Z,19.00
2022-08-26T20:48:59.621Z,18.90
2022-08-26T20:51:29.039Z,18.90
2022-08-26T20:53:56.973Z,18.90
2022-08-26T20:56:25.060Z,18.80
2022-08-26T20:58:55.899Z,18.80
2022-08-26T21:01:25.911Z,18.80
2022-08-26T21:03:54.976Z,18.80
2022-08-26T21:06:23.865Z,18.80
2022-08-26T21:08:52.060Z,18.80
2022-08-26T21:11:22.321Z,18.70
2022-08-26T21:14:15.701Z,18.70
2022-08-26T21:16:41.711Z,18.70
2022-08-26T21:19:11.898Z,18.60
2022-08-26T21:21:40.766Z,18.70
2022-08-26T21:24:09.656Z,18.70
2022-08-26T21:26:38.443Z,18.70
2022-08-26T21:29:09.495Z,18.60
2022-08-26T21:31:45.038Z,18.60
2022-08-26T21:34:14.372Z,18.50
2022-08-26T21:36:42.464Z,18.50
2022-08-26T21:39:12.071Z,18.50
2022-08-26T21:41:40.513Z,18.50
2022-08-26T21:44:08.876Z,18.50
2022-08-26T21:46:37.462Z,18.60
2022-08-26T21:49:09.401Z,18.60
2022-08-26T21:51:39.724Z,18.50
2022-08-26T21:54:11.155Z,18.50
2022-08-26T21:56:46.679Z,18.50
2022-08-26T21:59:15.916Z,18.30
2022-08-26T22:01:44.037Z,18.60
2022-08-26T22:04:13.562Z,18.60
2022-08-26T22:06:44.050Z,18.60
2022-08-26T22:09:13.412Z,18.60
2022-08-26T22:11:41.547Z,18.40
2022-08-26T22:14:11.317Z,18.60
2022-08-26T22:16:39.660Z,18.50
2022-08-26T22:19:07.830Z,18.50
2022-08-26T22:21:42.513Z,18.50
2022-08-26T22:24:12.205Z,18.60
2022-08-26T22:26:40.369Z,18.90
2022-08-26T22:29:08.556Z,18.60
2022-08-26T22:31:37.624Z,18.60
2022-08-26T22:34:07.960Z,18.50
2022-08-26T22:36:36.162Z,18.50
2022-08-26T22:39:10.692Z,18.50
2022-08-26T22:41:38.608Z,18.50
2022-08-26T22:44:07.474Z,18.40
2022-08-26T22:46:36.810Z,18.40
2022-08-26T22:49:05.423Z,18.40
2022-08-26T22:51:33.366Z,18.50
2022-08-26T22:54:01.704Z,18.50
2022-08-26T22:56:30.951Z,18.40
2022-08-26T22:58:58.787Z,18.40
2022-08-26T23:01:26.897Z,18.30
2022-08-26T23:03:54.903Z,18.30
2022-08-26T23:06:22.748Z,18.40
2022-08-26T23:08:50.935Z,18.40
2022-08-26T23:11:19.684Z,18.40
2022-08-26T23:13:49.004Z,18.40
2022-08-26T23:16:17.078Z,18.40
2022-08-26T23:18:44.957Z,18.40
2022-08-26T23:21:12.880Z,18.30
2022-08-26T23:23:40.778Z,18.30
2022-08-26T23:26:09.746Z,18.20
2022-08-26T23:28:39.576Z,18.20
2022-08-26T23:31:09.086Z,18.30
2022-08-26T23:33:54.557Z,18.20
2022-08-26T23:36:23.429Z,18.20
2022-08-26T23:38:52.452Z,18.10
2022-08-26T23:41:24.180Z,18.20
2022-08-26T23:43:52.441Z,18.20
2022-08-26T23:46:21.804Z,18.20
2022-08-26T23:48:49.987Z,18.20
2022-08-26T23:51:35.368Z,18.20
2022-08-26T23:54:03.813Z,18.20
2022-08-26T23:56:32.115Z,18.10
2022-08-26T23:59:00.706Z,18.10
